Latest Coastal Weather Observations for Middle Percy Island

IDQ60701

Issued at 3:32 pm EST Monday 29 August 2016 (issued every 10 minutes, with the page automatically refreshed every 10 minutes)

About coastal observations | Map of coastal stations | Coastal observations for QLD | Marine services | Other Formats
Station Details ID: 200001 Name: MIDDLE PERCY ISLAND Lat: -21.66 Lon: 150.27 Height: 208.7 m
Data from the previous 72 hours. | See also: Recent months at Middle Percy Island
Date/Time
EST
Temp
°C
Wind Pressure Rain since
9am
mm
Weather Cloud Vis
km
Sea
Height
m
Swell
Dir  Spd
kts
Gust
kts
hPa Trend Height
m
Period
s
Dir
29/03:30pm 20.6 SE 13 20 1022.0 - 0.0 - - - - - - -
29/03:00pm 21.0 SE 14 19 1022.2 - 0.0 - - - - - - -
29/02:30pm 21.8 SE 13 19 1022.3 - 0.0 - - - - - - -
29/02:00pm 21.7 SE 15 18 1022.4 - 0.0 - - - - - - -
29/01:30pm 22.5 SE 13 18 1022.6 - 0.0 - - - - - - -
29/01:00pm 21.6 ESE 13 18 1022.7 - 0.0 - - - - - - -
29/12:30pm 21.6 ESE 15 20 1023.0 - 0.0 - - - - - - -
29/12:00pm 21.1 SE 14 18 1023.2 - 0.0 - - - - - - -
29/11:30am 21.5 SSE 10 15 1023.6 - 0.0 - - - - - - -
29/11:00am 19.6 SSE 9 12 1023.8 - 0.0 - - - - - - -
29/10:30am 20.4 SE 9 13 1024.0 - 0.0 - - - - - - -
29/10:00am 19.1 SE 8 11 1024.1 - 0.0 - - - - - - -
29/09:30am 20.3 SE 10 14 1024.1 - 0.0 - - - - - - -
29/09:00am 20.8 ESE 10 15 1024.0 - 0.0 - - - - - - -
29/08:30am 20.1 ESE 10 15 1023.9 - 0.0 - - - - - - -
29/08:00am 19.5 SE 11 16 1023.7 - 0.0 - - - - - - -
29/07:30am 19.7 SE 7 13 1023.4 - 0.0 - - - - - - -
29/07:00am 18.5 SE 10 15 1022.9 - 0.0 - - - - - - -
29/06:30am 18.0 ESE 5 10 1022.5 - 0.0 - - - - - - -
29/06:00am 18.2 ESE 8 16 1022.2 - 0.0 - - - - - - -
29/05:30am 17.7 ESE 5 8 1021.9 - 0.0 - - - - - - -
29/05:00am 17.8 ESE 9 16 1021.7 - 0.0 - - - - - - -
29/04:30am 18.0 ESE 9 14 1021.5 - 0.0 - - - - - - -
29/04:00am 18.1 SE 11 15 1021.3 - 0.0 - - - - - - -
29/03:30am 18.0 ESE 8 16 1021.2 - 0.0 - - - - - - -
29/03:00am 17.9 E 6 12 1021.2 - 0.0 - - - - - - -
29/02:30am 17.8 E 7 12 1021.3 - 0.0 - - - - - - -
29/02:00am 17.4 ESE 6 13 1021.5 - 0.0 - - - - - - -
29/01:30am 17.2 ESE 7 10 1022.0 - 0.0 - - - - - - -
29/01:00am 17.3 E 6 9 1022.1 - 0.0 - - - - - - -
29/12:30am 16.9 ESE 6 10 1022.0 - 0.0 - - - - - - -
29/12:00am 17.1 E 6 12 1022.0 - 0.0 - - - - - - -
 
Date/Time
EST
Temp
°C
Wind Pressure Rain since
9am
mm
Weather Cloud Vis
km
Sea
Height
m
Swell
Dir  Spd
kts
Gust
kts
hPa Trend Height
m
Period
s
Dir
28/11:30pm 16.9 ESE 6 13 1022.0 - 0.0 - - - - - - -
28/11:00pm 16.9 ESE 7 13 1022.1 - 0.0 - - - - - - -
28/10:30pm 17.0 ESE 8 13 1022.1 - 0.0 - - - - - - -
28/10:00pm 16.7 ESE 6 10 1022.3 - 0.0 - - - - - - -
28/09:30pm 16.9 ESE 11 17 1022.4 - 0.0 - - - - - - -
28/09:00pm 16.9 SE 11 16 1022.3 - 0.0 - - - - - - -
28/08:30pm 16.9 SE 11 19 1022.4 - 0.0 - - - - - - -
28/08:00pm 16.9 SE 11 17 1022.2 - 0.0 - - - - - - -
28/07:30pm 16.8 SE 11 17 1022.0 - 0.0 - - - - - - -
28/07:00pm 16.6 SE 12 16 1021.7 - 0.0 - - - - - - -
28/06:30pm 16.4 SSE 12 17 1021.4 - 0.0 - - - - - - -
28/06:00pm 16.8 SE 10 14 1021.4 - 0.0 - - - - - - -
28/05:30pm 17.1 SE 9 15 1021.3 - 0.0 - - - - - - -
28/05:00pm 17.7 SE 10 14 1021.1 - 0.0 - - - - - - -
28/04:30pm 18.3 SE 10 15 1021.1 - 0.0 - - - - - - -
28/04:00pm 18.8 SE 10 16 1021.0 - 0.0 - - - - - - -
28/03:30pm 18.9 SE 10 14 1020.9 - 0.0 - - - - - - -
28/03:00pm 19.1 SE 9 13 1021.0 - 0.0 - - - - - - -
28/02:30pm 19.4 SE 11 15 1021.0 - 0.0 - - - - - - -
28/02:00pm 19.5 SE 10 14 1021.2 - 0.0 - - - - - - -
28/01:30pm 19.6 SSE 10 15 1021.5 - 0.0 - - - - - - -
28/01:00pm 20.3 SE 9 13 1022.0 - 0.0 - - - - - - -
28/12:30pm 20.0 SE 8 12 1022.3 - 0.0 - - - - - - -
28/12:00pm 20.2 SSE 9 14 1022.8 - 0.0 - - - - - - -
28/11:30am 19.5 SE 8 13 1023.2 - 0.0 - - - - - - -
28/11:00am 19.8 ESE 7 12 1023.5 - 0.0 - - - - - - -
28/10:30am 19.5 ESE 8 12 1023.6 - 0.0 - - - - - - -
28/10:00am 19.4 SE 9 12 1023.6 - 0.0 - - - - - - -
28/09:30am 18.6 SSE 10 13 1023.5 - 0.0 - - - - - - -
28/09:00am 17.9 SSE 11 17 1023.4 - 0.0 - - - - - - -
28/08:30am 17.4 SSE 9 12 1023.6 - 0.0 - - - - - - -
28/08:00am 17.1 SE 9 13 1023.2 - 0.0 - - - - - - -
28/07:30am 16.1 SSE 10 14 1023.0 - 0.0 - - - - - - -
28/07:00am 15.4 SSE 10 15 1022.5 - 0.0 - - - - - - -
28/06:30am 15.4 SE 9 13 1022.4 - 0.0 - - - - - - -
28/06:00am 14.9 SE 8 12 1022.3 - 0.0 - - - - - - -
28/05:30am 15.3 SE 10 14 1021.9 - 0.0 - - - - - - -
28/05:00am 14.7 SSE 10 14 1021.4 - 0.0 - - - - - - -
28/04:30am 14.6 SSE 9 13 1021.1 - 0.0 - - - - - - -
28/04:00am 14.7 SSE 9 13 1021.1 - 0.0 - - - - - - -
28/03:30am 14.9 SSE 10 15 1021.0 - 0.0 - - - - - - -
28/03:00am 15.3 SSE 12 18 1020.9 - 0.0 - - - - - - -
28/02:30am 15.5 SSE 11 16 1021.2 - 0.0 - - - - - - -
28/02:00am 15.1 SSE 11 16 1021.5 - 0.0 - - - - - - -
28/01:30am 15.4 S 11 15 1021.5 - 0.0 - - - - - - -
28/01:00am 15.4 S 9 17 1021.6 - 0.0 - - - - - - -
28/12:30am 15.5 S 10 15 1021.8 - 0.0 - - - - - - -
28/12:00am 14.8 S 8 11 1021.9 - 0.0 - - - - - - -
 
Date/Time
EST
Temp
°C
Wind Pressure Rain since
9am
mm
Weather Cloud Vis
km
Sea
Height
m
Swell
Dir  Spd
kts
Gust
kts
hPa Trend Height
m
Period
s
Dir
27/11:30pm 14.9 SSE 8 13 1022.1 - 0.0 - - - - - - -
27/11:00pm 14.4 SSE 6 9 1022.2 - 0.0 - - - - - - -
27/10:30pm 14.4 SSE 6 8 1022.3 - 0.0 - - - - - - -
27/10:00pm 14.5 SE 5 7 1022.0 - 0.0 - - - - - - -
27/09:30pm 14.5 SE 4 7 1022.0 - 0.0 - - - - - - -
27/09:00pm 14.6 SE 5 7 1022.2 - 0.0 - - - - - - -
27/08:30pm 14.7 ESE 5 8 1022.0 - 0.0 - - - - - - -
27/08:00pm 15.1 SE 6 8 1021.8 - 0.0 - - - - - - -
27/07:30pm 14.7 SSE 6 9 1021.6 - 0.0 - - - - - - -
27/07:00pm 14.8 SSE 5 8 1021.3 - 0.0 - - - - - - -
27/06:30pm 14.9 SSE 5 7 1021.0 - 0.0 - - - - - - -
27/06:00pm 15.3 S 6 9 1020.3 - 0.0 - - - - - - -
27/05:30pm 15.3 SSE 7 8 1020.0 - 0.0 - - - - - - -
27/05:00pm 16.3 S 8 14 1019.7 - 0.0 - - - - - - -
27/04:30pm 16.9 S 12 16 1019.2 - 0.0 - - - - - - -
27/04:00pm 17.0 S 14 21 1019.0 - 0.0 - - - - - - -
27/03:30pm 17.2 SSW 13 19 1019.1 - 0.0 - - - - - - -
27/03:00pm 17.1 S 14 19 1019.1 - 0.0 - - - - - - -
27/02:30pm 16.9 S 14 18 1019.2 - 0.0 - - - - - - -
27/02:00pm 16.7 S 13 19 1019.6 - 0.0 - - - - - - -
27/01:30pm 16.6 SSW 14 20 1020.1 - 0.0 - - - - - - -
27/01:00pm 16.2 S 15 22 1020.6 - 0.0 - - - - - - -
27/12:30pm 16.3 S 16 23 1020.9 - 0.0 - - - - - - -
27/12:00pm 16.1 S 12 19 1021.2 - 0.0 - - - - - - -
27/11:30am 16.1 S 15 22 1021.4 - 0.0 - - - - - - -
27/11:00am 16.0 SSE 16 20 1021.7 - 0.0 - - - - - - -
27/10:30am 15.8 S 17 24 1022.0 - 0.0 - - - - - - -
27/10:00am 15.7 S 17 24 1022.0 - 0.0 - - - - - - -
27/09:30am 15.5 S 19 24 1021.9 - 0.0 - - - - - - -
27/09:00am 15.2 S 19 24 1021.9 - 0.0 - - - - - - -
27/08:30am 15.2 SSE 16 21 1021.9 - 0.0 - - - - - - -
27/08:00am 14.7 S 19 24 1021.6 - 0.0 - - - - - - -
27/07:30am 14.6 SSE 17 22 1021.4 - 0.0 - - - - - - -
27/07:00am 14.3 SSE 17 24 1021.2 - 0.0 - - - - - - -
27/06:30am 14.3 S 18 24 1020.6 - 0.0 - - - - - - -
27/06:00am 14.3 SSE 18 25 1020.1 - 0.0 - - - - - - -
27/05:30am 14.7 S 20 25 1019.7 - 0.0 - - - - - - -
27/05:00am 14.6 S 21 26 1019.2 - 0.0 - - - - - - -
27/04:30am 14.9 S 20 26 1019.3 - 0.0 - - - - - - -
27/04:00am 15.1 S 20 25 1018.7 - 0.0 - - - - - - -
27/03:30am 15.3 S 19 25 1018.4 - 0.0 - - - - - - -
27/03:00am 15.4 S 21 27 1018.7 - 0.0 - - - - - - -
27/02:30am 15.7 S 21 27 1018.4 - 0.0 - - - - - - -
27/02:00am 16.0 S 22 29 1018.4 - 0.0 - - - - - - -
27/01:30am 16.1 S 18 26 1018.8 - 0.0 - - - - - - -
27/01:00am 16.3 S 18 24 1019.0 - 0.0 - - - - - - -
27/12:30am 16.4 S 19 26 1019.3 - 0.0 - - - - - - -
27/12:00am 16.3 S 17 22 1019.4 - 0.0 - - - - - - -
 
Date/Time
EST
Temp
°C
Wind Pressure Rain since
9am
mm
Weather Cloud Vis
km
Sea
Height
m
Swell
Dir  Spd
kts
Gust
kts
hPa Trend Height
m
Period
s
Dir
26/11:30pm 16.2 S 16 21 1019.4 - 0.0 - - - - - - -
26/11:00pm 16.2 S 17 22 1019.4 - 0.0 - - - - - - -
26/10:30pm 16.3 S 17 22 1019.3 - 0.0 - - - - - - -
26/10:00pm 16.2 S 16 21 1019.5 - 0.0 - - - - - - -
26/09:30pm 16.2 S 15 22 1019.3 - 0.0 - - - - - - -
26/09:00pm 16.3 S 17 21 1019.0 - 0.0 - - - - - - -
26/08:30pm 16.2 S 16 19 1018.8 - 0.0 - - - - - - -
26/08:00pm 16.3 S 14 20 1018.4 - 0.0 - - - - - - -
26/07:30pm 16.4 S 16 21 1018.2 - 0.0 - - - - - - -
26/07:00pm 16.5 S 13 19 1017.8 - 0.0 - - - - - - -
26/06:30pm 16.5 S 14 18 1017.5 - 0.0 - - - - - - -
26/06:00pm 16.5 S 14 19 1017.1 - 0.0 - - - - - - -
26/05:30pm 16.6 S 14 19 1016.6 - 0.0 - - - - - - -
26/05:00pm 16.6 S 13 16 1016.4 - 0.0 - - - - - - -
26/04:30pm 16.9 S 12 15 1016.1 - 0.0 - - - - - - -
26/04:00pm 16.6 S 14 19 1015.8 - 0.0 - - - - - - -

Other Formats:

Comma delimited format used in spreadsheet applications
http://www.bom.gov.au/fwo/IDQ60701/IDQ60701.94372.axf

JavaScript Object Notation format (JSON) in row-major order
http://www.bom.gov.au/fwo/IDQ60701/IDQ60701.94372.json